Time;durP1;ratioP1;P1;durP2;ratioP2;P2;SDS_P1;SDS_P2;PMS_P1;PMS_P2;Temp;Humidity;BMP_temperature;BMP_pressure;BME280_temperature;BME280_humidity;BME280_pressure;Samples;Min_cycle;Max_cycle;Signal;HPM_P1;HPM_P2
2021/03/12 00:01:06;;;;;;;2.70;1.55;;;7.60;99.90;;;;;;4854819;29;20218;-78
2021/03/12 00:03:36;;;;;;;5.03;2.00;;;7.60;99.90;;;;;;4861406;29;20754;-78
2021/03/12 00:06:06;;;;;;;3.28;1.48;;;7.60;99.90;;;;;;4859496;29;20294;-78
2021/03/12 00:08:38;;;;;;;2.03;1.42;;;7.60;99.90;;;;;;4861074;29;20223;-78
2021/03/12 00:11:05;;;;;;;2.53;1.20;;;7.60;99.90;;;;;;4861243;29;20638;-78
2021/03/12 00:13:33;;;;;;;6.18;1.25;;;7.60;99.90;;;;;;4860151;29;20224;-78
2021/03/12 00:16:02;;;;;;;4.32;1.40;;;7.50;99.90;;;;;;4860805;29;20614;-78
2021/03/12 00:18:33;;;;;;;2.55;1.42;;;7.50;99.60;;;;;;4844465;29;20310;-78
2021/03/12 00:21:01;;;;;;;5.88;1.65;;;7.50;99.60;;;;;;4860496;29;20203;-78
2021/03/12 00:23:27;;;;;;;6.35;2.15;;;7.50;98.70;;;;;;4860663;29;20234;-78
2021/03/12 00:25:54;;;;;;;3.47;1.23;;;7.50;97.90;;;;;;4859221;29;20223;-78
2021/03/12 00:28:20;;;;;;;3.53;1.70;;;7.50;98.70;;;;;;4859424;29;20215;-78
2021/03/12 00:30:48;;;;;;;3.75;1.80;;;7.40;98.40;;;;;;4845877;29;20623;-78
2021/03/12 00:33:17;;;;;;;2.08;1.73;;;7.50;97.80;;;;;;4864445;29;20310;-78
2021/03/12 00:35:45;;;;;;;7.38;1.95;;;7.50;97.90;;;;;;4859997;29;20246;-78
2021/03/12 00:38:13;;;;;;;7.97;2.78;;;7.40;97.80;;;;;;4859426;29;20215;-78
2021/03/12 00:40:52;;;;;;;3.30;1.42;;;7.40;97.80;;;;;;4861003;29;20642;-78
2021/03/12 00:43:20;;;;;;;7.07;1.92;;;7.40;97.70;;;;;;4843483;29;20227;-78
2021/03/12 00:45:49;;;;;;;8.32;1.25;;;7.40;97.10;;;;;;4859647;29;20211;-78
2021/03/12 00:48:20;;;;;;;5.03;1.88;;;7.50;96.30;;;;;;4860347;29;20215;-78
2021/03/12 00:50:47;;;;;;;7.68;1.88;;;7.40;96.60;;;;;;4840126;29;20251;-78
2021/03/12 00:53:20;;;;;;;6.65;2.13;;;7.50;96.90;;;;;;4847001;29;20585;-78
2021/03/12 00:55:48;;;;;;;5.82;1.50;;;7.40;97.00;;;;;;4844034;29;20219;-78
2021/03/12 00:58:19;;;;;;;5.70;1.40;;;7.40;96.90;;;;;;4839343;29;20314;-78
2021/03/12 01:00:49;;;;;;;7.50;1.65;;;7.50;97.50;;;;;;4840580;29;20225;-78
2021/03/12 01:03:16;;;;;;;2.70;2.40;;;7.40;97.60;;;;;;4841556;29;20239;-78
2021/03/12 01:05:51;;;;;;;10.82;2.00;;;7.40;97.80;;;;;;4854956;29;20219;-78
2021/03/12 01:08:26;;;;;;;5.30;2.20;;;7.30;99.00;;;;;;4838799;29;20245;-78
2021/03/12 01:10:53;;;;;;;9.38;3.20;;;7.20;99.90;;;;;;4843666;29;20255;-78
2021/03/12 01:13:19;;;;;;;4.47;2.05;;;7.20;99.90;;;;;;4842915;29;20694;-78
2021/03/12 01:15:45;;;;;;;9.63;2.33;;;7.10;99.90;;;;;;4828351;29;20242;-78
2021/03/12 01:18:23;;;;;;;6.63;2.33;;;7.10;99.90;;;;;;4858414;29;20589;-79
2021/03/12 01:20:54;;;;;;;5.90;1.98;;;7.10;99.90;;;;;;4843646;29;20191;-79
2021/03/12 01:23:22;;;;;;;5.25;1.83;;;7.10;99.90;;;;;;4841832;29;20219;-78
2021/03/12 01:25:49;;;;;;;3.13;1.55;;;7.10;99.90;;;;;;4858635;29;20231;-78
2021/03/12 01:28:21;;;;;;;6.43;1.52;;;7.10;99.90;;;;;;4857392;29;20302;-78
2021/03/12 01:30:49;;;;;;;5.63;1.90;;;7.10;99.90;;;;;;4843712;29;20681;-78
2021/03/12 01:33:24;;;;;;;7.45;1.65;;;7.00;99.90;;;;;;4858180;29;20638;-78
2021/03/12 01:35:51;;;;;;;7.82;1.70;;;6.90;99.90;;;;;;4859237;29;20234;-78
2021/03/12 01:38:19;;;;;;;3.72;1.45;;;6.90;99.90;;;;;;4838378;29;20220;-78
2021/03/12 01:40:49;;;;;;;7.60;1.50;;;6.90;99.90;;;;;;4825172;29;20226;-78
2021/03/12 01:43:18;;;;;;;4.47;2.10;;;6.90;99.90;;;;;;4839438;29;20332;-79
2021/03/12 01:45:50;;;;;;;3.65;1.80;;;6.90;99.90;;;;;;4840347;29;20215;-79
2021/03/12 01:48:25;;;;;;;5.65;2.50;;;6.90;99.90;;;;;;4852286;29;20222;-79
2021/03/12 01:50:58;;;;;;;4.68;2.53;;;6.90;99.90;;;;;;4859131;29;20184;-79
2021/03/12 01:53:26;;;;;;;7.18;2.60;;;6.80;99.90;;;;;;4859214;29;20254;-79
2021/03/12 01:55:56;;;;;;;2.58;1.65;;;6.80;99.90;;;;;;4855112;29;20219;-79
2021/03/12 01:58:32;;;;;;;7.68;2.58;;;6.80;99.90;;;;;;4843340;29;20250;-79
2021/03/12 02:01:03;;;;;;;7.20;2.45;;;6.80;99.90;;;;;;4844008;29;20311;-79
2021/03/12 02:03:43;;;;;;;8.00;2.70;;;6.80;99.90;;;;;;4856876;29;20313;-79
2021/03/12 02:06:28;;;;;;;12.07;3.13;;;6.80;99.90;;;;;;4858985;29;20254;-79
2021/03/12 02:08:57;;;;;;;6.13;2.45;;;6.90;99.90;;;;;;4837451;29;20719;-78
2021/03/12 02:11:38;;;;;;;7.35;2.50;;;6.90;99.90;;;;;;4856520;29;20233;-78
2021/03/12 02:14:21;;;;;;;9.82;2.80;;;6.90;99.90;;;;;;4835056;29;20253;-78
2021/03/12 02:17:02;;;;;;;4.07;2.00;;;6.90;99.90;;;;;;4842627;29;20313;-79
2021/03/12 02:19:48;;;;;;;8.88;3.15;;;6.90;99.90;;;;;;4842661;29;20613;-78
2021/03/12 02:22:17;;;;;;;8.20;3.00;;;6.90;99.90;;;;;;4840044;29;20224;-78
2021/03/12 02:24:58;;;;;;;9.07;2.05;;;6.90;99.90;;;;;;4840063;29;20586;-78
2021/03/12 02:27:37;;;;;;;9.70;2.33;;;6.80;99.90;;;;;;4825784;29;20223;-79
2021/03/12 02:30:07;;;;;;;8.98;2.63;;;6.90;99.90;;;;;;4848065;29;20184;-78
2021/03/12 02:32:47;;;;;;;9.80;3.17;;;6.80;99.90;;;;;;4854605;29;20255;-79
2021/03/12 02:35:23;;;;;;;11.30;3.60;;;6.80;99.90;;;;;;4842808;29;20704;-79
2021/03/12 02:38:02;;;;;;;6.13;1.95;;;6.80;99.90;;;;;;4856098;29;20229;-78
2021/03/12 02:40:30;;;;;;;6.40;2.22;;;6.80;99.90;;;;;;4857759;29;20196;-78
2021/03/12 02:43:03;;;;;;;11.80;2.53;;;6.80;99.90;;;;;;4838506;29;20300;-78
2021/03/12 02:45:30;;;;;;;5.00;2.63;;;6.80;99.90;;;;;;4826869;29;20215;-78
2021/03/12 02:48:05;;;;;;;7.80;2.03;;;6.80;99.90;;;;;;4859147;29;20222;-79
2021/03/12 02:50:35;;;;;;;10.27;2.17;;;6.80;99.90;;;;;;4842684;29;20226;-78
2021/03/12 02:53:05;;;;;;;8.90;2.53;;;6.80;99.90;;;;;;4841351;29;20220;-78
2021/03/12 02:55:36;;;;;;;7.97;2.05;;;6.80;99.90;;;;;;4861858;29;20207;-78
2021/03/12 02:58:06;;;;;;;7.35;2.00;;;6.80;99.90;;;;;;4842320;29;20228;-78
2021/03/12 03:00:34;;;;;;;9.18;2.50;;;6.80;99.90;;;;;;4834590;29;20231;-79
2021/03/12 03:03:27;;;;;;;9.68;2.20;;;6.80;99.90;;;;;;4861660;29;20238;-78
2021/03/12 03:06:14;;;;;;;10.85;2.40;;;6.90;99.90;;;;;;4844475;29;20571;-78
2021/03/12 03:08:44;;;;;;;9.88;2.05;;;6.90;99.90;;;;;;4861256;29;20253;-79
2021/03/12 03:11:13;;;;;;;6.38;2.95;;;6.90;99.90;;;;;;4860890;29;20198;-78
2021/03/12 03:13:58;;;;;;;4.90;1.98;;;6.90;99.90;;;;;;4861069;29;20215;-78
2021/03/12 03:16:29;;;;;;;5.30;1.95;;;6.90;99.90;;;;;;4863939;29;20211;-79
2021/03/12 03:18:57;;;;;;;9.88;2.30;;;6.90;99.90;;;;;;4865203;29;20237;-78
2021/03/12 03:21:26;;;;;;;10.43;2.50;;;6.90;99.90;;;;;;4844873;29;20191;-79
2021/03/12 03:23:53;;;;;;;5.80;1.95;;;6.90;99.90;;;;;;4844698;29;20275;-78
2021/03/12 03:26:21;;;;;;;6.82;2.90;;;6.80;99.90;;;;;;4844930;29;20300;-78
2021/03/12 03:28:50;;;;;;;6.32;1.90;;;6.80;99.90;;;;;;4844793;29;20203;-78
2021/03/12 03:31:17;;;;;;;4.55;2.25;;;6.80;99.90;;;;;;4845226;29;20594;-78
2021/03/12 03:33:44;;;;;;;12.45;3.85;;;6.70;99.90;;;;;;4848935;29;20256;-78
2021/03/12 03:36:12;;;;;;;9.02;3.65;;;6.70;99.90;;;;;;4842164;29;20399;-78
2021/03/12 03:38:39;;;;;;;8.88;2.03;;;6.60;99.90;;;;;;4840771;29;20196;-78
2021/03/12 03:41:09;;;;;;;9.50;2.80;;;6.60;99.90;;;;;;4842399;29;20208;-78
2021/03/12 03:43:42;;;;;;;7.97;2.30;;;6.60;99.90;;;;;;4838129;29;20232;-79
2021/03/12 03:46:14;;;;;;;5.65;2.53;;;6.60;99.90;;;;;;4848500;29;20191;-78
2021/03/12 03:48:44;;;;;;;7.00;2.67;;;6.60;99.90;;;;;;4844961;29;20603;-78
2021/03/12 03:51:16;;;;;;;9.75;3.10;;;6.60;99.90;;;;;;4858721;29;20203;-79
2021/03/12 03:53:46;;;;;;;7.38;2.58;;;6.50;99.90;;;;;;4860534;29;20199;-78
2021/03/12 03:56:16;;;;;;;7.63;3.33;;;6.50;99.90;;;;;;4859477;29;20195;-78
2021/03/12 03:58:45;;;;;;;10.77;2.80;;;6.50;99.90;;;;;;4844476;29;20199;-79
2021/03/12 04:01:16;;;;;;;6.05;2.13;;;6.50;99.90;;;;;;4844050;29;20191;-78
2021/03/12 04:03:47;;;;;;;8.10;2.70;;;6.40;99.90;;;;;;4844311;29;20651;-78
2021/03/12 04:06:15;;;;;;;10.43;2.75;;;6.40;99.90;;;;;;4841136;29;20543;-78
2021/03/12 04:08:44;;;;;;;9.32;2.38;;;6.40;99.90;;;;;;4860229;29;20191;-78
2021/03/12 04:11:11;;;;;;;7.30;2.80;;;6.40;99.90;;;;;;4859745;29;20200;-78
2021/03/12 04:13:39;;;;;;;5.53;2.55;;;6.40;99.90;;;;;;4859121;29;20219;-79
2021/03/12 04:16:08;;;;;;;7.35;2.67;;;6.40;99.90;;;;;;4844550;29;20630;-79
2021/03/12 04:18:35;;;;;;;9.27;2.25;;;6.40;99.90;;;;;;4859572;29;20223;-79
2021/03/12 04:21:03;;;;;;;10.00;3.22;;;6.50;99.90;;;;;;4844701;29;20202;-78
2021/03/12 04:23:31;;;;;;;11.35;2.92;;;6.50;99.90;;;;;;4859788;29;20238;-79
2021/03/12 04:26:01;;;;;;;9.07;3.13;;;6.50;99.90;;;;;;4859838;29;20219;-78
2021/03/12 04:28:28;;;;;;;7.40;2.45;;;6.50;99.90;;;;;;4858079;29;20581;-79
2021/03/12 04:30:55;;;;;;;8.43;2.47;;;6.50;99.90;;;;;;4861117;29;20562;-78
2021/03/12 04:33:22;;;;;;;10.43;2.50;;;6.50;99.90;;;;;;4843739;29;20243;-78
2021/03/12 04:35:54;;;;;;;8.95;2.45;;;6.50;99.90;;;;;;4854196;29;20707;-78
2021/03/12 04:38:23;;;;;;;10.43;2.13;;;6.50;99.90;;;;;;4859605;29;20238;-79
2021/03/12 04:40:50;;;;;;;14.45;3.10;;;6.50;99.90;;;;;;4848806;29;20251;-78
2021/03/12 04:43:21;;;;;;;10.68;2.60;;;6.60;99.90;;;;;;4859049;29;20602;-78
2021/03/12 04:45:50;;;;;;;10.13;2.78;;;6.60;99.90;;;;;;4859551;29;20314;-78
2021/03/12 04:48:17;;;;;;;10.15;2.80;;;6.50;99.90;;;;;;4860827;29;20313;-78
2021/03/12 04:50:46;;;;;;;10.30;2.45;;;6.50;99.90;;;;;;4858638;29;20211;-78
2021/03/12 04:53:13;;;;;;;9.90;3.35;;;6.60;99.90;;;;;;4859237;29;20234;-78
2021/03/12 04:55:39;;;;;;;9.80;2.83;;;6.60;99.90;;;;;;4843899;29;20305;-78
2021/03/12 04:58:11;;;;;;;10.00;3.05;;;6.60;99.90;;;;;;4839531;29;20255;-78
2021/03/12 05:00:38;;;;;;;11.10;2.58;;;6.60;99.90;;;;;;4834322;29;20661;-78
2021/03/12 05:03:11;;;;;;;8.98;2.63;;;6.60;99.90;;;;;;4825227;29;20234;-78
2021/03/12 05:05:41;;;;;;;6.95;2.05;;;6.60;99.90;;;;;;4851562;29;20216;-78
2021/03/12 05:08:12;;;;;;;7.47;2.40;;;6.60;99.90;;;;;;4838717;29;20306;-78
2021/03/12 05:11:04;;;;;;;3.75;2.30;;;6.60;99.90;;;;;;4812954;29;20272;-78
2021/03/12 05:13:43;;;;;;;10.77;2.90;;;6.60;99.90;;;;;;4842081;29;20231;-78
2021/03/12 05:16:09;;;;;;;8.15;2.50;;;6.60;99.90;;;;;;4857874;29;20195;-77
2021/03/12 05:18:36;;;;;;;6.30;2.70;;;6.60;99.90;;;;;;4843231;29;20201;-78
2021/03/12 05:21:07;;;;;;;4.65;2.05;;;6.50;99.90;;;;;;4857722;29;20734;-78
2021/03/12 05:23:33;;;;;;;12.13;2.58;;;6.60;99.90;;;;;;4842713;29;20642;-78
2021/03/12 05:26:00;;;;;;;7.85;2.33;;;6.50;99.90;;;;;;4843435;29;20191;-78
2021/03/12 05:28:28;;;;;;;7.97;2.63;;;6.50;99.90;;;;;;4858545;29;20219;-78
2021/03/12 05:30:54;;;;;;;16.00;5.25;;;6.50;99.90;;;;;;4860226;29;20243;-78
2021/03/12 05:33:21;;;;;;;11.98;2.25;;;6.50;99.90;;;;;;4842774;29;20724;-79
2021/03/12 05:35:48;;;;;;;6.28;1.73;;;6.50;99.90;;;;;;4858711;29;20218;-78
2021/03/12 05:38:15;;;;;;;8.20;2.58;;;6.50;99.90;;;;;;4858334;29;20836;-78
2021/03/12 05:40:42;;;;;;;13.13;3.63;;;6.50;99.90;;;;;;4854056;29;20615;-78
2021/03/12 05:43:10;;;;;;;8.88;2.83;;;6.50;99.90;;;;;;4842115;29;20230;-78
2021/03/12 05:45:52;;;;;;;12.10;2.60;;;6.50;99.90;;;;;;4829603;29;20216;-78
2021/03/12 05:48:20;;;;;;;7.75;2.42;;;6.50;99.90;;;;;;4842889;29;20223;-78
2021/03/12 05:50:48;;;;;;;9.13;2.30;;;6.40;99.90;;;;;;4842453;29;20214;-78
2021/03/12 05:53:15;;;;;;;7.70;2.50;;;6.40;99.90;;;;;;4858054;29;20227;-78
2021/03/12 05:55:44;;;;;;;7.50;2.70;;;6.40;99.90;;;;;;4842528;29;20203;-78
2021/03/12 05:58:11;;;;;;;10.77;3.33;;;6.40;99.90;;;;;;4838380;29;20228;-78
2021/03/12 06:00:38;;;;;;;7.65;2.53;;;6.40;99.90;;;;;;4833031;29;20267;-78
2021/03/12 06:03:07;;;;;;;5.30;2.88;;;6.40;99.90;;;;;;4842052;29;20236;-78
2021/03/12 06:05:45;;;;;;;12.93;2.55;;;6.40;99.90;;;;;;4857289;29;20301;-78
2021/03/12 06:08:14;;;;;;;10.65;2.53;;;6.40;99.90;;;;;;4859472;29;20313;-78
2021/03/12 06:10:43;;;;;;;8.75;2.65;;;6.40;99.90;;;;;;4843056;29;20191;-78
2021/03/12 06:13:13;;;;;;;6.95;2.35;;;6.40;99.90;;;;;;4831291;29;20244;-78
2021/03/12 06:15:43;;;;;;;10.38;2.45;;;6.40;99.90;;;;;;4841557;29;20215;-78
2021/03/12 06:18:21;;;;;;;12.80;2.67;;;6.40;99.90;;;;;;4842781;29;20259;-78
2021/03/12 06:20:55;;;;;;;7.32;2.20;;;6.50;99.90;;;;;;4842209;29;20195;-78
2021/03/12 06:23:36;;;;;;;6.22;2.50;;;6.40;99.90;;;;;;4842283;29;20709;-78
2021/03/12 06:26:14;;;;;;;7.63;2.53;;;6.50;99.90;;;;;;4857858;29;20658;-78
2021/03/12 06:29:09;;;;;;;5.10;3.08;;;6.50;99.90;;;;;;4844533;29;20206;-78
2021/03/12 06:31:54;;;;;;;13.00;3.25;;;6.50;99.90;;;;;;4862893;29;20226;-78
2021/03/12 06:35:00;;;;;;;4.22;2.42;;;6.50;99.90;;;;;;4839245;29;20303;-78
2021/03/12 06:38:06;;;;;;;5.93;2.35;;;6.50;99.90;;;;;;4839057;29;20310;-78
2021/03/12 06:40:47;;;;;;;9.85;3.42;;;6.60;99.90;;;;;;4827974;29;20199;-78
2021/03/12 06:43:35;;;;;;;7.78;2.92;;;6.60;99.90;;;;;;4856130;29;20724;-78
2021/03/12 06:46:02;;;;;;;5.78;2.25;;;6.60;99.90;;;;;;4860711;29;20290;-78
2021/03/12 06:49:00;;;;;;;11.70;2.20;;;6.60;99.90;;;;;;4854655;29;20302;-78
2021/03/12 06:51:54;;;;;;;5.88;2.20;;;6.60;99.90;;;;;;4861355;29;20221;-78
2021/03/12 06:54:26;;;;;;;5.63;2.80;;;6.70;99.90;;;;;;4828029;29;20216;-78
2021/03/12 06:56:59;;;;;;;9.65;2.30;;;6.70;99.90;;;;;;4844119;29;20223;-78
2021/03/12 06:59:41;;;;;;;4.65;2.10;;;6.80;99.90;;;;;;4845909;29;20786;-78
2021/03/12 07:02:15;;;;;;;11.88;3.53;;;6.80;99.90;;;;;;4845579;29;20781;-78
2021/03/12 07:04:55;;;;;;;5.10;2.20;;;6.80;99.90;;;;;;4859524;29;20214;-78
2021/03/12 07:07:42;;;;;;;10.50;2.90;;;6.80;99.90;;;;;;4859174;29;20594;-78
2021/03/12 07:10:34;;;;;;;12.77;3.40;;;6.80;99.90;;;;;;4844124;29;20278;-78
2021/03/12 07:13:20;;;;;;;13.05;3.60;;;6.90;99.90;;;;;;4858989;29;20720;-78
2021/03/12 07:15:54;;;;;;;6.05;2.90;;;6.90;99.90;;;;;;4857588;29;20219;-78
2021/03/12 07:18:29;;;;;;;5.82;2.70;;;6.90;99.90;;;;;;4858737;29;20301;-78
2021/03/12 07:21:02;;;;;;;4.05;2.58;;;6.90;99.90;;;;;;4845531;29;20196;-78
2021/03/12 07:23:32;;;;;;;12.00;2.70;;;6.90;99.90;;;;;;4863166;29;20227;-79
2021/03/12 07:26:00;;;;;;;11.75;2.17;;;6.90;99.90;;;;;;4861487;29;20188;-79
2021/03/12 07:28:29;;;;;;;8.30;2.30;;;7.00;99.90;;;;;;4839581;29;20225;-78
2021/03/12 07:31:15;;;;;;;11.35;2.50;;;7.00;99.90;;;;;;4861829;29;20689;-77
2021/03/12 07:33:51;;;;;;;7.25;2.60;;;7.10;99.90;;;;;;4845070;29;20243;-78
2021/03/12 07:36:26;;;;;;;7.78;2.72;;;7.10;99.90;;;;;;4843158;29;20615;-78
2021/03/12 07:39:03;;;;;;;9.90;3.10;;;7.10;99.90;;;;;;4844567;29;20678;-78
2021/03/12 07:41:31;;;;;;;11.43;3.28;;;7.20;99.90;;;;;;4858730;29;20286;-78
2021/03/12 07:44:18;;;;;;;13.35;2.90;;;7.20;99.90;;;;;;4854868;29;20605;-78
2021/03/12 07:47:04;;;;;;;7.50;2.75;;;7.30;99.90;;;;;;4860140;29;20231;-78
2021/03/12 07:49:34;;;;;;;9.95;2.05;;;7.40;99.90;;;;;;4858724;29;20271;-78
2021/03/12 07:52:47;;;;;;;11.20;2.65;;;7.50;99.90;;;;;;4860724;29;20259;-79
2021/03/12 07:55:35;;;;;;;9.18;2.13;;;7.60;99.90;;;;;;4845427;29;20211;-78
2021/03/12 07:58:47;;;;;;;11.07;2.58;;;7.60;99.90;;;;;;4832800;29;20224;-78
2021/03/12 08:01:15;;;;;;;11.82;3.05;;;7.70;99.90;;;;;;4826175;29;20192;-78
2021/03/12 08:03:47;;;;;;;6.15;1.83;;;7.80;99.90;;;;;;4842664;29;20219;-78
2021/03/12 08:06:22;;;;;;;9.25;2.58;;;7.90;99.70;;;;;;4828230;29;20213;-78
2021/03/12 08:09:34;;;;;;;4.45;2.17;;;7.90;99.20;;;;;;4845612;29;20234;-78
2021/03/12 08:12:30;;;;;;;8.93;2.50;;;7.90;99.30;;;;;;4856780;29;20223;-78
2021/03/12 08:15:12;;;;;;;7.22;2.65;;;7.90;99.30;;;;;;4836056;29;20310;-78
2021/03/12 08:17:56;;;;;;;9.10;2.38;;;7.80;99.40;;;;;;4859469;29;20243;-78
2021/03/12 08:20:29;;;;;;;7.28;2.22;;;7.80;99.50;;;;;;4859193;29;20234;-78
2021/03/12 08:23:48;;;;;;;8.55;2.85;;;7.80;99.70;;;;;;4856954;29;20247;-78
2021/03/12 08:27:01;;;;;;;13.57;3.22;;;7.70;99.90;;;;;;4842705;29;20191;-78
2021/03/12 08:29:46;;;;;;;7.00;2.53;;;7.70;99.60;;;;;;4783878;30;20764;-78
2021/03/12 08:32:44;;;;;;;7.40;3.00;;;7.70;99.50;;;;;;4769888;30;20217;-78
2021/03/12 08:35:42;;;;;;;8.23;2.92;;;7.70;99.50;;;;;;4820396;29;20307;-78
2021/03/12 08:38:44;;;;;;;9.13;3.30;;;7.70;99.00;;;;;;4834557;29;20695;-78
2021/03/12 08:41:40;;;;;;;10.45;3.28;;;7.70;99.00;;;;;;4821129;29;20239;-78
2021/03/12 08:44:26;;;;;;;7.50;2.40;;;7.70;98.40;;;;;;4859365;29;20650;-78
2021/03/12 08:47:17;;;;;;;11.75;2.60;;;7.70;98.60;;;;;;4856491;29;20222;-78
2021/03/12 08:49:51;;;;;;;11.88;2.42;;;7.80;98.00;;;;;;4850705;29;20210;-78
2021/03/12 08:52:23;;;;;;;7.30;3.45;;;7.80;98.10;;;;;;4841151;29;20579;-78
2021/03/12 08:54:57;;;;;;;8.10;2.65;;;7.80;97.50;;;;;;4856647;29;20224;-78
2021/03/12 08:57:27;;;;;;;11.63;2.97;;;7.90;97.20;;;;;;4857826;29;20566;-78
2021/03/12 09:00:14;;;;;;;9.88;2.60;;;7.90;97.00;;;;;;4849027;29;20207;-79
2021/03/12 09:03:20;;;;;;;8.25;3.13;;;8.00;95.70;;;;;;4843387;29;20233;-78
2021/03/12 09:06:12;;;;;;;6.07;2.08;;;8.10;95.90;;;;;;4832221;29;20203;-77
2021/03/12 09:08:58;;;;;;;9.35;1.95;;;8.20;95.90;;;;;;4842005;29;20200;-78
2021/03/12 09:12:05;;;;;;;5.63;2.17;;;8.20;95.40;;;;;;4781030;30;20312;-78
2021/03/12 09:14:44;;;;;;;7.22;2.22;;;8.30;94.20;;;;;;4834122;29;20230;-78
2021/03/12 09:17:11;;;;;;;12.30;3.60;;;8.40;93.00;;;;;;4857205;29;20283;-78
2021/03/12 09:19:41;;;;;;;11.63;2.25;;;8.50;93.00;;;;;;4858853;29;20195;-78
2021/03/12 09:22:21;;;;;;;7.22;1.83;;;8.50;91.60;;;;;;4855668;29;20215;-78
2021/03/12 09:24:55;;;;;;;7.60;2.30;;;8.50;91.60;;;;;;4853873;29;20635;-78
2021/03/12 09:27:34;;;;;;;8.25;3.13;;;8.60;92.20;;;;;;4837047;29;20219;-78
2021/03/12 09:30:23;;;;;;;9.43;2.13;;;8.60;91.70;;;;;;4838898;29;20192;-78
2021/03/12 09:32:53;;;;;;;13.15;2.13;;;8.70;91.10;;;;;;4857472;29;20219;-78
2021/03/12 09:35:25;;;;;;;9.98;2.25;;;8.80;90.70;;;;;;4925004;23;20237;-74
2021/03/12 09:37:57;;;;;;;4.70;2.25;;;8.80;91.30;;;;;;4859957;29;20219;-74
2021/03/12 09:40:45;;;;;;;20.48;2.88;;;8.80;91.40;;;;;;4851395;29;20195;-74
2021/03/12 09:43:18;;;;;;;6.25;1.95;;;9.00;91.30;;;;;;4859065;29;20219;-74
2021/03/12 09:45:55;;;;;;;9.98;2.80;;;9.20;90.30;;;;;;4875223;29;20282;-76
2021/03/12 09:48:35;;;;;;;7.28;1.75;;;9.40;88.80;;;;;;4856090;29;20247;-74
2021/03/12 09:51:11;;;;;;;3.55;2.13;;;9.60;86.30;;;;;;4842233;29;20206;-75
2021/03/12 09:53:39;;;;;;;7.10;1.88;;;9.90;84.20;;;;;;4842705;29;20669;-77
2021/03/12 09:56:12;;;;;;;4.78;1.95;;;9.90;81.50;;;;;;4859700;29;20306;-79
2021/03/12 09:58:48;;;;;;;6.50;2.30;;;10.40;80.50;;;;;;4857999;29;20707;-75
2021/03/12 10:01:40;;;;;;;11.45;2.95;;;10.30;79.70;;;;;;4859221;29;20476;-76
2021/03/12 10:04:42;;;;;;;4.37;2.10;;;10.20;77.00;;;;;;4866250;29;20230;-73
2021/03/12 10:07:42;;;;;;;7.95;1.90;;;10.50;77.10;;;;;;4858354;29;20529;-75
2021/03/12 10:10:32;;;;;;;5.70;1.80;;;10.20;77.60;;;;;;4861691;29;20266;-77
2021/03/12 10:13:05;;;;;;;7.00;2.33;;;10.10;76.40;;;;;;4856750;29;20268;-75
2021/03/12 10:15:43;;;;;;;8.63;1.83;;;10.20;77.30;;;;;;4861667;29;20211;-76
2021/03/12 10:18:23;;;;;;;9.90;2.50;;;10.40;76.90;;;;;;4842557;29;20262;-75
2021/03/12 10:21:10;;;;;;;6.20;1.90;;;10.60;79.00;;;;;;4858839;29;20564;-75
2021/03/12 10:23:40;;;;;;;4.53;2.03;;;10.80;75.70;;;;;;4858676;29;20486;-75
2021/03/12 10:26:13;;;;;;;6.50;2.10;;;10.80;75.40;;;;;;4857767;29;20751;-77
2021/03/12 10:28:46;;;;;;;7.17;2.40;;;10.70;78.20;;;;;;4858336;29;20956;-75
2021/03/12 10:31:13;;;;;;;14.33;2.20;;;10.80;75.20;;;;;;4842324;29;20783;-76
2021/03/12 10:33:48;;;;;;;4.03;2.37;;;10.80;73.60;;;;;;4842344;29;20814;-75
2021/03/12 10:36:17;;;;;;;8.80;2.40;;;10.80;75.00;;;;;;4858087;29;20812;-75
2021/03/12 10:38:46;;;;;;;7.13;2.50;;;10.80;73.90;;;;;;4842891;29;20427;-73
2021/03/12 10:41:22;;;;;;;4.33;1.47;;;10.70;74.60;;;;;;4858329;29;20441;-76
2021/03/12 10:44:01;;;;;;;6.87;2.07;;;10.60;72.20;;;;;;4854354;29;20485;-75
2021/03/12 10:46:28;;;;;;;5.63;2.30;;;10.50;74.10;;;;;;4847199;29;20510;-75
2021/03/12 10:48:55;;;;;;;7.47;2.10;;;10.50;74.10;;;;;;4857901;29;20997;-78
2021/03/12 10:51:22;;;;;;;6.80;1.90;;;10.40;73.80;;;;;;4840900;29;20444;-75
2021/03/12 10:53:54;;;;;;;7.70;1.83;;;10.20;75.60;;;;;;4857650;29;20448;-76
2021/03/12 10:56:23;;;;;;;9.25;2.88;;;10.20;77.70;;;;;;4841166;29;20216;-74
2021/03/12 10:58:50;;;;;;;8.45;1.92;;;10.10;74.90;;;;;;4854223;29;20204;-77
2021/03/12 11:01:26;;;;;;;5.90;2.30;;;10.00;75.70;;;;;;4872161;29;20642;-78
2021/03/12 11:03:54;;;;;;;12.07;1.70;;;10.00;74.70;;;;;;4842399;29;20317;-75
2021/03/12 11:06:27;;;;;;;6.88;1.85;;;9.90;75.00;;;;;;4856178;29;20198;-75
2021/03/12 11:08:53;;;;;;;5.95;1.90;;;9.90;74.80;;;;;;4830639;29;20207;-76
2021/03/12 11:11:21;;;;;;;7.65;2.15;;;9.90;74.90;;;;;;4857083;29;20219;-77
2021/03/12 11:13:49;;;;;;;5.88;2.15;;;9.80;74.10;;;;;;4858195;29;20557;-76
2021/03/12 11:16:17;;;;;;;5.35;1.67;;;9.80;76.10;;;;;;4860259;29;20251;-78
2021/03/12 11:18:46;;;;;;;3.30;1.40;;;9.80;75.80;;;;;;4862175;29;20191;-73
2021/03/12 11:21:14;;;;;;;5.68;2.20;;;9.80;75.10;;;;;;4861095;29;20266;-75
2021/03/12 11:23:45;;;;;;;6.75;1.80;;;9.80;75.80;;;;;;4861655;29;20203;-76
2021/03/12 11:26:13;;;;;;;7.30;2.10;;;9.80;76.40;;;;;;4856246;29;20191;-77
2021/03/12 11:28:40;;;;;;;4.93;1.73;;;9.90;71.80;;;;;;4874802;29;20675;-78
2021/03/12 11:31:07;;;;;;;5.30;1.83;;;9.90;73.00;;;;;;4844422;29;20199;-75
2021/03/12 11:33:34;;;;;;;4.65;1.52;;;9.90;75.10;;;;;;4863044;29;20588;-72
2021/03/12 11:36:04;;;;;;;6.55;1.88;;;9.90;74.80;;;;;;4863649;29;20204;-74
2021/03/12 11:38:31;;;;;;;3.83;1.70;;;10.00;72.60;;;;;;4871436;29;20272;-77
2021/03/12 11:40:57;;;;;;;4.95;1.80;;;10.30;70.30;;;;;;4845001;29;20335;-76
2021/03/12 11:43:25;;;;;;;5.65;1.50;;;10.40;71.50;;;;;;4859618;29;20281;-77
2021/03/12 11:45:52;;;;;;;6.85;1.90;;;10.60;69.20;;;;;;4861664;29;20203;-77
2021/03/12 11:48:21;;;;;;;3.60;1.83;;;10.70;68.50;;;;;;4861363;29;20592;-74
2021/03/12 11:50:49;;;;;;;6.47;3.20;;;10.70;68.90;;;;;;4879383;29;20193;-75
2021/03/12 11:53:16;;;;;;;5.28;1.58;;;10.80;69.50;;;;;;4859369;29;20225;-76
2021/03/12 11:55:42;;;;;;;6.57;1.67;;;10.90;68.40;;;;;;4827476;29;20218;-75
2021/03/12 11:58:10;;;;;;;6.63;2.17;;;10.90;67.60;;;;;;4852980;29;20221;-75
2021/03/12 12:00:39;;;;;;;5.28;1.83;;;10.90;69.00;;;;;;4862231;29;20807;-76
2021/03/12 12:03:05;;;;;;;6.07;1.80;;;10.80;68.90;;;;;;4859746;29;20224;-75
2021/03/12 12:05:32;;;;;;;6.57;2.73;;;10.70;70.40;;;;;;4859671;29;20486;-78
2021/03/12 12:07:59;;;;;;;9.33;2.33;;;10.70;71.10;;;;;;4859321;29;20551;-74
2021/03/12 12:10:26;;;;;;;6.00;2.40;;;10.80;69.90;;;;;;4873074;29;20451;-74
2021/03/12 12:12:56;;;;;;;7.33;2.93;;;10.90;69.00;;;;;;4864665;29;20830;-78
2021/03/12 12:15:26;;;;;;;6.40;1.90;;;10.90;69.90;;;;;;4847125;29;20478;-72
2021/03/12 12:18:01;;;;;;;6.10;2.23;;;11.00;69.40;;;;;;4845079;29;20484;-76
2021/03/12 12:20:30;;;;;;;9.77;2.13;;;11.10;69.80;;;;;;4851667;29;20814;-75
2021/03/12 12:23:00;;;;;;;4.83;1.63;;;11.30;69.60;;;;;;4859995;29;20520;-77
2021/03/12 12:25:30;;;;;;;8.70;1.80;;;11.50;67.90;;;;;;4860404;29;20479;-77
2021/03/12 12:27:56;;;;;;;7.03;1.80;;;11.60;68.90;;;;;;4843062;29;20478;-75
2021/03/12 12:30:23;;;;;;;5.00;2.10;;;11.70;68.80;;;;;;4859303;29;20843;-76
2021/03/12 12:32:50;;;;;;;8.17;2.17;;;11.80;67.70;;;;;;4859323;29;20515;-73
2021/03/12 12:35:17;;;;;;;6.23;1.77;;;11.80;68.40;;;;;;4828424;29;20576;-74
2021/03/12 12:37:49;;;;;;;4.67;1.40;;;11.70;68.80;;;;;;4857685;29;20476;-73
2021/03/12 12:40:20;;;;;;;8.63;2.10;;;11.80;66.60;;;;;;4860344;29;20527;-75
2021/03/12 12:42:47;;;;;;;6.57;1.63;;;11.70;67.00;;;;;;4855678;29;20484;-73
2021/03/12 12:45:15;;;;;;;9.60;2.20;;;11.70;66.10;;;;;;4858531;29;20534;-75
2021/03/12 12:47:42;;;;;;;5.70;2.67;;;11.60;66.50;;;;;;4861670;29;20472;-76
2021/03/12 12:50:10;;;;;;;5.67;2.57;;;11.50;66.80;;;;;;4858295;29;20440;-74
2021/03/12 12:52:38;;;;;;;5.27;1.93;;;11.60;67.80;;;;;;4855721;29;20486;-73
2021/03/12 12:55:10;;;;;;;6.43;2.40;;;11.60;66.10;;;;;;4845216;29;20498;-72
2021/03/12 12:57:38;;;;;;;6.50;1.70;;;11.50;67.80;;;;;;4855981;29;20626;-75
2021/03/12 13:00:11;;;;;;;3.93;1.63;;;11.50;66.70;;;;;;4862432;29;20708;-75
2021/03/12 13:02:43;;;;;;;8.23;2.40;;;11.50;65.20;;;;;;4838653;29;20482;-75
2021/03/12 13:05:11;;;;;;;8.17;2.30;;;11.50;68.00;;;;;;4857245;29;20518;-73
2021/03/12 13:07:37;;;;;;;7.23;2.10;;;11.50;65.90;;;;;;4852656;29;20480;-74
2021/03/12 13:10:15;;;;;;;4.37;1.60;;;11.30;66.50;;;;;;4862045;29;20469;-75
2021/03/12 13:12:42;;;;;;;6.03;1.90;;;11.20;67.80;;;;;;4841221;29;20477;-76
2021/03/12 13:15:10;;;;;;;8.10;2.23;;;11.00;67.30;;;;;;4862620;23;20491;-76
2021/03/12 13:17:36;;;;;;;6.40;1.80;;;11.00;69.40;;;;;;4858520;29;20463;-75
2021/03/12 13:20:08;;;;;;;3.73;1.70;;;11.10;68.30;;;;;;4867774;29;20529;-74
2021/03/12 13:22:35;;;;;;;10.33;1.87;;;11.20;68.40;;;;;;4853312;29;20869;-75
2021/03/12 13:25:03;;;;;;;6.22;2.20;;;11.10;68.60;;;;;;4857473;29;20486;-73
2021/03/12 13:27:35;;;;;;;6.53;1.53;;;11.10;69.60;;;;;;4859391;29;20209;-75